Time;durP1;ratioP1;P1;durP2;ratioP2;P2;SDS_P1;SDS_P2;PMS_P1;PMS_P2;Temp;Humidity;BMP_temperature;BMP_pressure;BME280_temperature;BME280_humidity;BME280_pressure;Samples;Min_cycle;Max_cycle;Signal;HPM_P1;HPM_P2
2023/07/05 00:00:29;;;;;;;19.62;11.25;;;;;;;18.56;100.00;100345.57;1401534;88;21450;-83
2023/07/05 00:02:55;;;;;;;15.65;11.85;;;;;;;18.59;100.00;100342.52;1401697;88;21234;-82
2023/07/05 00:05:21;;;;;;;15.85;11.38;;;;;;;18.61;100.00;100343.94;1570857;87;21441;-83
2023/07/05 00:07:48;;;;;;;13.05;11.12;;;;;;;18.61;100.00;100343.12;1384312;89;21294;-84
2023/07/05 00:12:45;;;;;;;15.85;11.43;;;;;;;18.57;100.00;100336.52;1503633;85;25596;-84
2023/07/05 00:15:11;;;;;;;16.00;11.70;;;;;;;18.46;100.00;100341.42;1475333;88;21441;-83
2023/07/05 00:17:37;;;;;;;18.65;12.47;;;;;;;18.42;100.00;100332.15;1471421;87;21618;-82
2023/07/05 00:20:06;;;;;;;19.15;13.80;;;;;;;18.39;100.00;100335.75;1438866;90;21444;-84
2023/07/05 00:22:33;;;;;;;22.32;13.18;;;;;;;18.36;100.00;100324.09;1424395;90;22374;-84
2023/07/05 00:25:02;;;;;;;15.48;10.43;;;;;;;18.35;100.00;100326.45;1419164;90;21391;-82
2023/07/05 00:27:30;;;;;;;17.02;12.82;;;;;;;18.33;100.00;100325.33;1439139;91;21429;-81
2023/07/05 00:29:57;;;;;;;18.90;13.13;;;;;;;18.31;100.00;100327.37;1420275;91;21377;-83
2023/07/05 00:32:23;;;;;;;21.17;11.30;;;;;;;18.34;100.00;100322.13;1442765;89;21700;-81
2023/07/05 00:34:50;;;;;;;23.75;12.03;;;;;;;18.35;100.00;100331.80;1445060;89;21599;-84
2023/07/05 00:37:16;;;;;;;15.55;12.07;;;;;;;18.33;100.00;100333.88;1435607;90;22136;-82
2023/07/05 00:39:42;;;;;;;17.50;11.20;;;;;;;18.33;100.00;100330.69;1414867;92;21973;-83
2023/07/05 00:42:08;;;;;;;27.48;10.60;;;;;;;18.35;100.00;100327.78;1429031;91;21553;-81
2023/07/05 00:44:35;;;;;;;13.68;11.20;;;;;;;18.34;100.00;100330.16;1435679;90;22595;-83
2023/07/05 00:47:15;;;;;;;16.32;9.73;;;;;;;18.27;100.00;100332.83;1437666;90;21472;-82
2023/07/05 00:49:42;;;;;;;15.18;10.28;;;;;;;18.22;100.00;100328.05;1440182;91;21612;-83
2023/07/05 00:52:15;;;;;;;12.88;8.88;;;;;;;18.18;100.00;100330.84;1437880;90;22455;-82
2023/07/05 00:54:47;;;;;;;12.90;9.27;;;;;;;18.13;100.00;100343.17;1435880;91;21619;-82
2023/07/05 00:57:23;;;;;;;12.97;9.53;;;;;;;18.03;100.00;100340.31;1436178;91;21568;-82
2023/07/05 01:00:03;;;;;;;21.33;11.38;;;;;;;17.97;100.00;100334.42;1431101;91;21501;-81
2023/07/05 01:02:31;;;;;;;14.33;9.68;;;;;;;17.96;100.00;100334.12;1433473;91;21420;-81
2023/07/05 01:04:59;;;;;;;14.90;10.47;;;;;;;17.97;100.00;100333.60;1432539;90;22300;-82
2023/07/05 01:07:26;;;;;;;13.17;9.17;;;;;;;17.95;100.00;100328.46;1442540;91;21629;-82
2023/07/05 01:09:53;;;;;;;10.50;7.87;;;;;;;17.94;100.00;100329.47;1426963;90;21479;-81
2023/07/05 01:12:37;;;;;;;13.47;9.23;;;;;;;17.91;100.00;100333.88;1431744;90;21546;-82
2023/07/05 01:15:18;;;;;;;11.80;8.27;;;;;;;17.89;100.00;100335.92;1431945;91;21751;-82
2023/07/05 01:18:30;;;;;;;11.60;8.27;;;;;;;17.88;100.00;100334.27;1429011;91;21531;-78
2023/07/05 01:28:50;;;;;;;14.90;11.23;;;;;;;17.89;100.00;100325.73;1366428;96;22546;-80
2023/07/05 01:31:51;;;;;;;13.53;10.27;;;;;;;17.81;100.00;100322.72;1394122;93;21615;-80
2023/07/05 01:34:34;;;;;;;;;;;;;;;17.79;100.00;100318.89;1401439;93;21562;-80
2023/07/05 01:37:09;;;;;;;13.13;9.57;;;;;;;17.75;100.00;100312.74;1397301;93;20297;-80
2023/07/05 01:39:35;;;;;;;19.43;10.73;;;;;;;17.71;100.00;100314.17;1379027;93;21497;-80
2023/07/05 01:42:04;;;;;;;11.43;9.50;;;;;;;17.69;100.00;100312.20;1391335;93;21453;-80
2023/07/05 01:44:30;;;;;;;12.70;9.10;;;;;;;17.70;100.00;100310.68;1393002;93;21563;-80
2023/07/05 01:47:20;;;;;;;16.43;10.23;;;;;;;17.76;100.00;100305.05;1382677;93;21609;-79
2023/07/05 01:50:03;;;;;;;15.43;10.27;;;;;;;17.77;100.00;100298.66;1394490;93;21466;-80
2023/07/05 01:52:58;;;;;;;15.60;10.43;;;;;;;17.72;100.00;100299.76;1399708;93;21459;-84
2023/07/05 01:55:29;;;;;;;15.43;11.73;;;;;;;17.67;100.00;100305.72;1396345;93;22375;-79
2023/07/05 01:58:09;;;;;;;17.30;11.87;;;;;;;17.61;100.00;100297.14;1391607;93;21718;-80
2023/07/05 02:00:38;;;;;;;13.47;9.80;;;;;;;17.62;100.00;100300.64;1397528;91;21760;-79
2023/07/05 02:03:12;;;;;;;15.57;11.83;;;;;;;17.64;100.00;100310.64;1429548;91;21909;-81
2023/07/05 02:05:38;;;;;;;17.93;10.53;;;;;;;17.66;100.00;100313.94;1422645;91;21554;-80
2023/07/05 02:08:05;;;;;;;16.03;10.73;;;;;;;17.68;100.00;100315.91;1430334;92;22500;-81
2023/07/05 02:10:33;;;;;;;14.83;10.40;;;;;;;17.68;100.00;100314.57;1420183;91;22960;-80
2023/07/05 02:13:10;;;;;;;14.80;11.50;;;;;;;17.65;100.00;100317.12;1427016;91;21561;-80
2023/07/05 02:15:40;;;;;;;19.33;11.50;;;;;;;17.57;100.00;100314.59;1423755;91;21649;-80
2023/07/05 02:18:07;;;;;;;15.73;11.43;;;;;;;17.48;100.00;100310.42;1428974;91;22448;-80
2023/07/05 02:20:35;;;;;;;15.13;9.90;;;;;;;17.43;100.00;100315.02;1418154;91;21481;-81
2023/07/05 02:23:02;;;;;;;14.93;11.07;;;;;;;17.41;100.00;100310.91;1426989;91;21547;-81
2023/07/05 02:25:30;;;;;;;12.23;9.37;;;;;;;17.40;100.00;100308.72;1427939;91;21487;-80
2023/07/05 02:27:56;;;;;;;13.27;10.10;;;;;;;17.43;100.00;100314.19;1426561;91;21509;-80
2023/07/05 02:30:26;;;;;;;18.17;11.07;;;;;;;17.45;100.00;100321.52;1430246;91;21486;-84
2023/07/05 02:32:51;;;;;;;14.33;11.23;;;;;;;17.47;100.00;100321.64;1435976;91;21523;-83
2023/07/05 02:35:17;;;;;;;16.73;11.63;;;;;;;17.47;100.00;100321.64;1431939;91;21464;-83
2023/07/05 02:37:44;;;;;;;17.03;12.67;;;;;;;17.43;100.00;100319.02;1427379;91;21583;-82
2023/07/05 02:40:11;;;;;;;15.77;11.17;;;;;;;17.41;100.00;100321.09;1426250;91;21607;-81
2023/07/05 02:42:37;;;;;;;13.10;10.50;;;;;;;17.41;100.00;100321.61;1424935;91;21701;-81
2023/07/05 02:45:04;;;;;;;14.17;10.47;;;;;;;17.44;100.00;100329.23;1430454;91;21464;-83
2023/07/05 02:47:30;;;;;;;19.17;12.50;;;;;;;17.47;100.00;100325.66;1434377;91;21679;-85
2023/07/05 02:49:56;;;;;;;18.53;11.30;;;;;;;17.54;100.00;100330.53;1427687;91;21480;-81
2023/07/05 02:52:22;;;;;;;14.70;11.33;;;;;;;17.57;100.00;100326.13;1432944;91;21597;-82
2023/07/05 02:54:48;;;;;;;18.60;12.37;;;;;;;17.55;100.00;100317.48;1424890;91;22345;-82
2023/07/05 02:57:14;;;;;;;12.60;11.30;;;;;;;17.48;100.00;100319.79;1422516;91;21464;-81
2023/07/05 02:59:41;;;;;;;15.90;11.20;;;;;;;17.46;100.00;100319.15;1408782;91;21546;-81
2023/07/05 03:02:09;;;;;;;14.97;12.10;;;;;;;17.47;100.00;100326.99;1405940;91;21427;-83
2023/07/05 03:04:35;;;;;;;13.93;10.63;;;;;;;17.49;100.00;100326.30;1430452;91;21443;-82
2023/07/05 03:07:01;;;;;;;17.30;11.33;;;;;;;17.52;100.00;100320.55;1408765;91;21376;-82
2023/07/05 03:09:27;;;;;;;16.40;12.33;;;;;;;17.58;100.00;100323.78;1435591;91;22390;-81
2023/07/05 03:15:07;;;;;;;20.70;12.00;;;;;;;17.68;100.00;100323.94;1422675;91;21569;-84
2023/07/05 03:17:34;;;;;;;19.10;11.73;;;;;;;17.71;100.00;100320.34;1416024;92;21472;-84
2023/07/05 03:20:00;;;;;;;18.43;11.97;;;;;;;17.74;100.00;100325.82;1418158;91;22317;-82
2023/07/05 03:22:27;;;;;;;14.70;10.50;;;;;;;17.80;100.00;100330.42;1458253;89;21486;-80
2023/07/05 03:24:54;;;;;;;18.85;11.85;;;;;;;17.83;100.00;100326.00;1450808;89;21464;-81
2023/07/05 03:27:21;;;;;;;14.43;10.00;;;;;;;17.87;100.00;100327.28;1452161;89;21715;-81
2023/07/05 03:29:50;;;;;;;15.15;12.25;;;;;;;17.91;100.00;100325.84;1453609;89;21493;-80
2023/07/05 03:32:16;;;;;;;14.60;11.03;;;;;;;17.90;100.00;100325.55;1453549;88;21494;-81
2023/07/05 03:34:42;;;;;;;19.60;11.83;;;;;;;17.87;100.00;100327.28;1440647;89;21442;-81
2023/07/05 03:37:08;;;;;;;17.52;12.58;;;;;;;17.86;100.00;100333.64;1450486;89;21448;-81
2023/07/05 03:39:34;;;;;;;19.80;12.85;;;;;;;17.87;100.00;100329.14;1448454;89;21464;-81
2023/07/05 03:42:03;;;;;;;17.97;12.23;;;;;;;17.91;100.00;100339.23;1451061;89;21507;-84
2023/07/05 03:44:29;;;;;;;14.70;11.60;;;;;;;17.91;100.00;100328.53;1435978;89;21530;-83
2023/07/05 03:46:55;;;;;;;17.00;12.78;;;;;;;17.88;100.00;100322.23;1454969;89;21413;-84
2023/07/05 03:49:21;;;;;;;18.37;12.05;;;;;;;17.86;100.00;100325.61;1448042;89;21710;-84
2023/07/05 03:51:47;;;;;;;14.93;12.35;;;;;;;17.89;100.00;100322.53;1452399;90;21508;-82
2023/07/05 03:54:14;;;;;;;15.05;11.63;;;;;;;17.95;100.00;100328.95;1445160;89;21582;-83
2023/07/05 03:56:40;;;;;;;14.98;12.60;;;;;;;17.97;100.00;100321.03;1455899;89;21383;-84
2023/07/05 03:59:06;;;;;;;15.15;11.57;;;;;;;18.00;100.00;100317.95;1447669;89;21493;-84
2023/07/05 04:01:33;;;;;;;18.20;11.78;;;;;;;18.08;100.00;100322.84;1446052;89;22446;-84
2023/07/05 04:04:01;;;;;;;19.70;13.05;;;;;;;18.12;100.00;100317.39;1455057;89;21507;-84
2023/07/05 04:06:33;;;;;;;14.73;11.45;;;;;;;18.15;100.00;100319.16;1449045;89;22328;-84
2023/07/05 04:09:00;;;;;;;18.32;11.93;;;;;;;18.16;100.00;100321.34;1454869;89;22322;-83
2023/07/05 04:11:26;;;;;;;17.23;12.30;;;;;;;18.16;100.00;100312.79;1452716;89;21700;-84
2023/07/05 04:13:55;;;;;;;19.32;13.95;;;;;;;18.20;100.00;100312.69;1450886;89;21501;-82
2023/07/05 04:16:24;;;;;;;16.30;13.48;;;;;;;18.25;100.00;100313.44;1452362;90;21427;-82
2023/07/05 04:18:54;;;;;;;17.73;12.18;;;;;;;18.23;100.00;100306.11;1452960;89;21522;-83
2023/07/05 04:21:22;;;;;;;15.32;11.97;;;;;;;18.22;100.00;100301.79;1445985;90;21398;-83
2023/07/05 04:23:49;;;;;;;15.43;11.97;;;;;;;18.28;100.00;100305.52;1461733;89;21471;-82
2023/07/05 04:26:20;;;;;;;16.80;11.63;;;;;;;18.34;100.00;100298.83;1454682;88;21649;-82
2023/07/05 04:28:47;;;;;;;15.50;12.35;;;;;;;18.46;100.00;100301.75;1454381;89;22557;-81
2023/07/05 04:31:18;;;;;;;16.17;11.30;;;;;;;18.56;100.00;100309.39;1450744;89;21637;-84
2023/07/05 04:33:45;;;;;;;20.68;11.88;;;;;;;18.63;100.00;100303.03;1450447;90;21723;-83
2023/07/05 04:36:12;;;;;;;16.85;10.63;;;;;;;18.71;100.00;100307.38;1452458;88;21427;-83
2023/07/05 04:38:38;;;;;;;16.30;12.70;;;;;;;18.81;100.00;100303.80;1450530;90;22373;-82
2023/07/05 04:41:04;;;;;;;21.52;12.63;;;;;;;18.85;100.00;100307.73;1451620;90;21398;-82
2023/07/05 04:43:30;;;;;;;18.75;12.70;;;;;;;18.93;100.00;100306.20;1449112;89;21493;-82
2023/07/05 04:45:59;;;;;;;21.30;13.50;;;;;;;19.03;100.00;100315.70;1447412;88;22470;-80
2023/07/05 04:48:28;;;;;;;16.80;11.97;;;;;;;19.13;100.00;100310.73;1436287;89;22944;-82
2023/07/05 04:50:57;;;;;;;18.73;13.15;;;;;;;19.25;100.00;100309.09;1448003;89;21694;-82
2023/07/05 04:53:27;;;;;;;21.97;12.68;;;;;;;19.34;100.00;100313.22;1447964;89;22360;-83
2023/07/05 04:55:59;;;;;;;16.52;11.85;;;;;;;19.49;100.00;100313.51;1449845;89;21471;-83
2023/07/05 04:58:26;;;;;;;17.42;11.48;;;;;;;19.63;100.00;100319.16;1449133;90;21435;-82
2023/07/05 05:00:52;;;;;;;17.48;12.05;;;;;;;19.72;100.00;100320.61;1453400;90;21508;-86
2023/07/05 05:03:22;;;;;;;24.10;13.18;;;;;;;19.77;100.00;100322.16;1453822;89;21493;-83
2023/07/05 05:05:52;;;;;;;18.73;13.00;;;;;;;19.86;100.00;100323.28;1448433;89;21678;-82
2023/07/05 05:08:20;;;;;;;23.35;12.35;;;;;;;19.95;100.00;100323.34;1453240;90;21471;-84
2023/07/05 05:10:56;;;;;;;23.38;14.25;;;;;;;20.03;100.00;100328.48;1449796;89;22351;-84
2023/07/05 05:13:23;;;;;;;20.45;13.03;;;;;;;20.09;100.00;100323.61;1450550;90;21475;-83
2023/07/05 05:15:50;;;;;;;16.80;12.10;;;;;;;20.13;100.00;100315.41;1454362;89;21516;-83
2023/07/05 05:18:18;;;;;;;21.82;13.10;;;;;;;20.12;100.00;100321.84;1448516;88;21457;-81
2023/07/05 05:20:44;;;;;;;18.20;12.45;;;;;;;20.25;100.00;100313.73;1453499;89;21655;-85
2023/07/05 05:23:10;;;;;;;19.92;12.80;;;;;;;20.39;100.00;100313.65;1449818;90;21472;-83
2023/07/05 05:25:44;;;;;;;16.95;11.68;;;;;;;20.52;100.00;100312.24;1449595;89;21435;-83
2023/07/05 05:28:09;;;;;;;19.70;12.60;;;;;;;20.64;100.00;100306.50;1453762;89;21537;-83
2023/07/05 05:30:35;;;;;;;22.00;12.30;;;;;;;20.67;100.00;100305.25;1448381;89;21463;-82
2023/07/05 05:33:05;;;;;;;16.42;11.90;;;;;;;20.87;100.00;100299.21;1451364;88;22447;-82
2023/07/05 05:35:32;;;;;;;20.30;13.68;;;;;;;20.87;100.00;100299.21;1443468;88;22396;-82
2023/07/05 05:37:59;;;;;;;16.32;11.97;;;;;;;20.94;100.00;100308.08;1450547;90;21484;-85
2023/07/05 05:40:25;;;;;;;19.32;13.40;;;;;;;21.07;100.00;100309.00;1447770;89;21464;-83
2023/07/05 05:42:51;;;;;;;18.35;12.70;;;;;;;21.15;100.00;100312.24;1451282;89;21615;-81
2023/07/05 05:45:18;;;;;;;18.48;12.25;;;;;;;21.18;100.00;100310.98;1445532;90;21530;-84
2023/07/05 05:47:44;;;;;;;20.77;12.10;;;;;;;21.29;100.00;100316.14;1452138;89;21593;-82
2023/07/05 05:50:11;;;;;;;21.75;12.15;;;;;;;21.36;100.00;100316.92;1449744;89;21398;-83
2023/07/05 05:52:37;;;;;;;20.43;12.45;;;;;;;21.50;100.00;100310.41;1447874;90;21589;-83
2023/07/05 05:55:04;;;;;;;20.32;11.50;;;;;;;21.67;100.00;100317.91;1454579;89;21441;-83
2023/07/05 05:57:30;;;;;;;17.35;11.73;;;;;;;21.71;100.00;100315.06;1453674;89;22379;-82
2023/07/05 05:59:56;;;;;;;17.12;11.22;;;;;;;21.89;100.00;100316.40;1450668;90;21376;-83
2023/07/05 06:02:22;;;;;;;16.10;11.97;;;;;;;21.99;99.71;100325.33;1439886;90;21449;-80
2023/07/05 06:04:48;;;;;;;24.20;12.53;;;;;;;22.06;99.14;100320.13;1450719;89;21516;-82
2023/07/05 06:07:14;;;;;;;24.80;12.78;;;;;;;22.15;98.24;100315.79;1448395;89;22448;-83
2023/07/05 06:09:47;;;;;;;15.53;11.55;;;;;;;22.22;96.98;100317.92;1453227;89;21464;-86
2023/07/05 06:12:14;;;;;;;16.82;10.90;;;;;;;22.28;97.08;100317.83;1448083;89;21493;-79
2023/07/05 06:14:40;;;;;;;16.87;11.80;;;;;;;22.33;95.70;100320.36;1458544;89;21523;-79
2023/07/05 06:17:06;;;;;;;19.73;11.95;;;;;;;22.35;95.78;100318.27;1451181;90;21509;-80
2023/07/05 06:19:33;;;;;;;15.38;11.45;;;;;;;22.39;95.92;100317.59;1450769;89;21464;-78
2023/07/05 06:22:00;;;;;;;16.95;11.97;;;;;;;22.47;96.00;100311.89;1454529;90;21419;-80
2023/07/05 06:24:26;;;;;;;16.70;11.48;;;;;;;22.62;95.95;100312.81;1443576;90;21606;-82
2023/07/05 06:27:02;;;;;;;22.62;11.97;;;;;;;22.66;92.49;100313.98;1452776;89;21376;-83
2023/07/05 06:29:28;;;;;;;15.68;11.93;;;;;;;22.73;93.19;100312.56;1451527;89;22500;-83
2023/07/05 06:31:54;;;;;;;18.60;12.40;;;;;;;22.71;92.28;100311.43;1454766;90;21419;-84
2023/07/05 06:34:21;;;;;;;21.90;11.08;;;;;;;22.79;93.83;100304.89;1453664;88;21448;-85
2023/07/05 06:36:47;;;;;;;18.70;12.45;;;;;;;22.85;93.47;100305.84;1451925;89;22352;-84
2023/07/05 06:39:32;;;;;;;17.17;11.93;;;;;;;22.88;91.87;100303.50;1450889;89;21420;-86
2023/07/05 06:41:58;;;;;;;20.77;12.80;;;;;;;22.90;92.51;100302.75;1459065;90;21719;-83
2023/07/05 06:44:49;;;;;;;16.50;11.63;;;;;;;22.97;92.00;100302.13;1445801;89;22064;-85
2023/07/05 06:47:15;;;;;;;22.50;11.30;;;;;;;23.05;89.82;100298.81;1452867;88;21663;-85
2023/07/05 06:50:00;;;;;;;19.62;12.28;;;;;;;23.18;91.48;100300.73;1434348;89;21442;-85
2023/07/05 06:52:26;;;;;;;16.25;10.40;;;;;;;23.31;89.46;100301.59;1450964;89;22307;-86
2023/07/05 06:54:53;;;;;;;19.25;10.08;;;;;;;23.38;88.59;100300.39;1455182;89;21457;-86
2023/07/05 06:57:19;;;;;;;16.05;11.68;;;;;;;23.58;89.51;100299.22;1452793;90;21656;-87
2023/07/05 06:59:45;;;;;;;15.95;10.98;;;;;;;23.72;87.85;100296.59;1448876;89;21545;-85
2023/07/05 07:02:12;;;;;;;15.78;10.03;;;;;;;23.78;86.33;100289.41;1452122;90;21517;-84
2023/07/05 07:04:38;;;;;;;18.10;10.43;;;;;;;23.93;86.83;100291.08;1453579;88;21612;-85
2023/07/05 07:07:05;;;;;;;16.23;10.82;;;;;;;23.95;82.42;100294.91;1453919;88;21397;-83
2023/07/05 07:09:33;;;;;;;13.50;10.18;;;;;;;23.79;82.57;100289.70;1439874;90;21593;-85
2023/07/05 07:11:59;;;;;;;19.60;11.03;;;;;;;23.87;84.16;100290.69;1453725;88;21589;-85
2023/07/05 07:14:25;;;;;;;14.03;10.25;;;;;;;24.00;84.16;100297.72;1455694;89;22322;-84
2023/07/05 07:16:52;;;;;;;14.47;10.15;;;;;;;24.11;82.50;100291.45;1448846;90;21470;-85
2023/07/05 07:19:18;;;;;;;15.72;10.13;;;;;;;24.14;82.92;100293.67;1455388;88;21471;-84
2023/07/05 07:21:46;;;;;;;15.20;9.88;;;;;;;24.27;84.23;100292.02;1450847;88;22047;-85
2023/07/05 07:24:12;;;;;;;16.23;11.50;;;;;;;24.39;83.46;100289.80;1449639;89;21560;-85
2023/07/05 07:26:39;;;;;;;13.10;9.45;;;;;;;24.61;83.87;100291.33;1452015;89;21457;-84
2023/07/05 07:29:05;;;;;;;18.10;9.78;;;;;;;24.86;83.50;100297.69;1452220;90;21567;-85
2023/07/05 07:31:33;;;;;;;20.40;10.80;;;;;;;24.88;81.17;100295.56;1453341;90;21493;-83
2023/07/05 07:34:01;;;;;;;15.10;9.65;;;;;;;25.04;82.21;100286.64;1458569;88;22470;-83
2023/07/05 07:36:30;;;;;;;12.75;8.10;;;;;;;25.22;81.20;100288.30;1455706;89;21479;-81
2023/07/05 07:38:57;;;;;;;10.28;8.55;;;;;;;25.35;79.51;100285.80;1456479;90;21442;-81
2023/07/05 07:41:31;;;;;;;17.27;9.55;;;;;;;25.43;76.60;100289.41;1456463;90;21671;-82
2023/07/05 07:44:04;;;;;;;13.43;9.08;;;;;;;25.48;77.67;100294.09;1442965;89;22199;-83
2023/07/05 07:46:31;;;;;;;11.28;8.68;;;;;;;25.50;77.19;100292.77;1459359;89;21508;-81
2023/07/05 07:49:00;;;;;;;13.53;8.98;;;;;;;25.54;75.11;100296.61;1445454;88;21960;-81
2023/07/05 07:51:32;;;;;;;12.63;9.57;;;;;;;25.49;75.78;100299.27;1445897;89;21472;-81
2023/07/05 07:53:59;;;;;;;13.70;8.38;;;;;;;25.51;75.57;100299.81;1444686;89;21649;-81
2023/07/05 07:56:27;;;;;;;10.35;7.70;;;;;;;25.47;74.90;100295.17;1434998;90;21426;-80
2023/07/05 07:58:55;;;;;;;10.68;8.03;;;;;;;25.55;74.09;100295.56;1446140;89;21471;-79
2023/07/05 08:01:30;;;;;;;10.53;7.50;;;;;;;25.64;74.56;100300.83;1459484;89;22286;-86
2023/07/05 08:03:58;;;;;;;11.50;7.50;;;;;;;25.70;73.21;100294.13;1460907;90;21434;-81
2023/07/05 08:06:36;;;;;;;10.53;6.95;;;;;;;25.76;73.86;100298.54;1453708;89;21611;-80
2023/07/05 08:09:05;;;;;;;10.23;6.85;;;;;;;25.74;67.29;100292.00;1452303;89;21449;-80
2023/07/05 08:11:33;;;;;;;10.05;7.65;;;;;;;25.72;68.28;100289.25;1441668;90;21714;-81
2023/07/05 08:13:59;;;;;;;9.50;6.70;;;;;;;25.71;70.34;100286.27;1400178;90;22383;-81
2023/07/05 08:16:26;;;;;;;11.70;7.35;;;;;;;25.85;69.94;100291.64;1458044;89;21820;-80
2023/07/05 08:18:53;;;;;;;17.12;9.30;;;;;;;26.04;71.52;100292.97;1446998;89;21463;-80
2023/07/05 08:21:20;;;;;;;12.15;8.08;;;;;;;26.23;72.43;100290.72;1412143;88;21478;-80
2023/07/05 08:23:46;;;;;;;11.90;8.28;;;;;;;26.42;71.71;100296.63;1447481;90;21857;-80
2023/07/05 08:26:13;;;;;;;16.65;9.63;;;;;;;26.59;72.31;100290.32;1452807;89;21471;-80
2023/07/05 08:28:39;;;;;;;13.88;8.68;;;;;;;26.78;71.64;100286.12;1452460;89;21517;-80
2023/07/05 08:31:07;;;;;;;12.63;8.75;;;;;;;26.87;70.05;100290.00;1451582;89;22358;-80
2023/07/05 08:33:36;;;;;;;11.95;8.10;;;;;;;26.81;67.77;100286.97;1432779;89;21441;-80
2023/07/05 08:36:10;;;;;;;13.30;8.50;;;;;;;26.83;70.00;100286.72;1430189;89;21367;-80
2023/07/05 08:38:43;;;;;;;12.75;7.70;;;;;;;26.95;68.78;100284.09;1443305;90;22149;-81
2023/07/05 08:41:27;;;;;;;10.03;7.70;;;;;;;26.99;68.13;100281.70;1450469;90;21478;-80
2023/07/05 08:44:15;;;;;;;7.45;6.40;;;;;;;27.14;69.62;100287.79;1441981;90;22410;-80
2023/07/05 08:46:43;;;;;;;12.13;7.22;;;;;;;27.28;64.49;100293.08;1452977;89;21523;-81
2023/07/05 08:49:21;;;;;;;11.80;6.87;;;;;;;27.34;66.87;100292.03;1446958;90;22270;-80
2023/07/05 08:51:48;;;;;;;8.63;6.22;;;;;;;27.40;66.42;100292.34;1450281;89;21508;-80
2023/07/05 08:54:16;;;;;;;10.23;5.78;;;;;;;27.42;63.83;100298.33;1437584;90;22322;-81
2023/07/05 08:56:54;;;;;;;10.43;6.22;;;;;;;27.59;65.38;100297.31;1448756;89;21449;-80
2023/07/05 08:59:57;;;;;;;6.65;5.87;;;;;;;27.81;64.84;100302.09;1452679;90;21641;-80
2023/07/05 09:02:24;;;;;;;8.13;5.95;;;;;;;27.74;59.88;100298.78;1446029;90;21478;-80
2023/07/05 09:04:50;;;;;;;6.03;5.37;;;;;;;27.93;62.84;100296.98;1450741;89;21456;-79
2023/07/05 09:07:55;;;;;;;11.08;6.35;;;;;;;28.00;62.58;100301.64;1457934;90;21353;-81
2023/07/05 09:10:34;;;;;;;10.23;5.85;;;;;;;28.15;62.72;100301.69;1457580;89;21478;-80
2023/07/05 09:13:15;;;;;;;8.30;5.95;;;;;;;28.20;60.59;100296.27;1459542;89;21434;-80
2023/07/05 09:15:46;;;;;;;8.63;6.92;;;;;;;28.29;61.42;100287.04;1460959;88;21706;-80
2023/07/05 09:18:41;;;;;;;7.78;6.50;;;;;;;28.56;62.30;100297.17;1458022;89;21545;-80
2023/07/05 09:21:45;;;;;;;7.33;6.10;;;;;;;28.65;61.40;100286.56;1452331;89;21457;-80
2023/07/05 09:24:25;;;;;;;9.68;6.58;;;;;;;28.92;61.36;100289.03;1449109;89;21544;-81
2023/07/05 09:27:12;;;;;;;7.25;5.58;;;;;;;29.15;60.95;100284.97;1454495;89;21677;-79
2023/07/05 09:29:50;;;;;;;7.97;6.15;;;;;;;29.31;59.26;100270.75;1440471;90;21575;-80
2023/07/05 09:32:27;;;;;;;7.17;5.78;;;;;;;29.15;58.40;100276.79;1451974;90;21597;-80
2023/07/05 09:34:58;;;;;;;9.45;5.80;;;;;;;29.12;59.48;100279.25;1457686;89;21493;-80
2023/07/05 09:37:36;;;;;;;6.25;5.37;;;;;;;29.21;58.83;100285.22;1448294;89;21486;-80
2023/07/05 09:40:19;;;;;;;9.35;5.78;;;;;;;29.18;58.75;100277.59;1450199;90;22083;-80
2023/07/05 09:43:09;;;;;;;6.47;5.62;;;;;;;29.15;59.38;100279.52;1452388;90;22374;-80
2023/07/05 09:45:35;;;;;;;11.73;7.33;;;;;;;29.03;59.32;100271.34;1456920;90;21471;-80
2023/07/05 09:48:06;;;;;;;6.35;5.50;;;;;;;29.02;58.99;100275.95;1452762;90;22396;-80
2023/07/05 09:50:32;;;;;;;8.88;5.30;;;;;;;28.97;59.53;100275.94;1448795;89;21515;-80
2023/07/05 09:53:03;;;;;;;9.83;6.75;;;;;;;28.91;59.32;100279.77;1457296;88;22455;-79
2023/07/05 09:55:32;;;;;;;7.08;5.75;;;;;;;28.83;58.96;100280.30;1441051;90;22588;-79
2023/07/05 09:57:59;;;;;;;11.85;5.97;;;;;;;28.75;59.44;100277.59;1452641;89;21442;-80
2023/07/05 10:01:08;;;;;;;7.35;5.30;;;;;;;28.75;59.08;100279.77;1455349;89;21544;-79
2023/07/05 10:10:56;;;;;;;8.43;6.05;;;;;;;28.83;58.65;100278.94;1450610;89;21434;-80
2023/07/05 10:13:29;;;;;;;9.28;5.50;;;;;;;28.90;59.10;100275.41;1444826;89;22293;-81
2023/07/05 10:16:04;;;;;;;10.40;5.00;;;;;;;29.01;59.60;100277.05;1452830;89;21456;-79
2023/07/05 10:18:34;;;;;;;9.13;5.55;;;;;;;29.15;59.42;100278.16;1448413;89;21552;-80
2023/07/05 10:21:09;;;;;;;5.95;5.20;;;;;;;29.24;58.72;100268.88;1450662;89;21486;-79
2023/07/05 10:23:35;;;;;;;9.98;5.75;;;;;;;29.14;57.59;100261.52;1443601;90;21686;-78
2023/07/05 10:26:05;;;;;;;9.43;5.70;;;;;;;29.28;57.96;100260.95;1455008;89;22359;-80
2023/07/05 10:28:36;;;;;;;7.47;5.42;;;;;;;29.36;56.92;100256.30;1451500;89;22436;-79
2023/07/05 10:31:04;;;;;;;10.88;5.70;;;;;;;29.45;57.27;100258.73;1500683;89;21601;-80
2023/07/05 10:33:35;;;;;;;9.25;5.03;;;;;;;29.54;56.84;100257.61;1447891;90;21390;-80
2023/07/05 10:36:13;;;;;;;8.13;5.83;;;;;;;29.62;55.87;100257.88;1454824;89;21405;-79
2023/07/05 10:38:46;;;;;;;6.00;5.40;;;;;;;29.83;56.54;100256.43;1447576;90;21530;-79
2023/07/05 10:41:18;;;;;;;6.53;5.62;;;;;;;29.81;49.46;100255.92;1447564;90;21486;-80
2023/07/05 10:43:55;;;;;;;12.23;5.67;;;;;;;29.84;49.59;100250.71;1455193;90;21439;-80
2023/07/05 10:46:25;;;;;;;8.88;5.83;;;;;;;30.02;48.09;100251.16;1450713;89;21456;-80
2023/07/05 10:48:52;;;;;;;10.48;5.55;;;;;;;30.10;48.35;100243.20;1449719;89;21449;-80
2023/07/05 10:51:27;;;;;;;6.10;4.92;;;;;;;30.18;48.36;100240.41;1455834;89;21486;-79
2023/07/05 10:54:11;;;;;;;9.08;5.70;;;;;;;30.13;42.24;100242.64;1455613;89;21700;-80
2023/07/05 10:56:38;;;;;;;8.65;5.92;;;;;;;30.26;43.35;100235.75;1446339;90;22351;-80
2023/07/05 10:59:25;;;;;;;11.50;6.80;;;;;;;30.29;42.97;100237.09;1453978;90;21447;-79
2023/07/05 11:02:02;;;;;;;12.43;5.20;;;;;;;30.41;44.10;100237.55;1451762;90;21598;-80
2023/07/05 11:04:31;;;;;;;9.83;5.33;;;;;;;30.59;44.89;100219.69;1447809;89;21551;-80
2023/07/05 11:07:07;;;;;;;12.80;6.45;;;;;;;30.72;43.76;100227.20;1456690;88;21449;-80
2023/07/05 11:09:35;;;;;;;8.60;6.45;;;;;;;30.70;43.29;100224.48;1454103;89;21448;-79
2023/07/05 11:12:03;;;;;;;11.05;5.92;;;;;;;30.69;41.86;100216.85;1457330;89;21745;-79
2023/07/05 11:14:30;;;;;;;8.25;5.72;;;;;;;30.69;41.97;100217.41;1455630;90;22022;-80
2023/07/05 11:16:58;;;;;;;7.10;5.20;;;;;;;30.71;42.44;100211.92;1449762;90;21634;-80
2023/07/05 11:19:30;;;;;;;8.10;5.87;;;;;;;30.58;41.97;100212.58;1450200;90;21427;-79
2023/07/05 11:21:58;;;;;;;13.08;5.80;;;;;;;30.37;42.00;100218.76;1455779;89;21641;-79
2023/07/05 11:24:44;;;;;;;8.28;5.97;;;;;;;30.17;42.49;100209.32;1452556;89;21404;-79
2023/07/05 11:27:35;;;;;;;8.43;5.42;;;;;;;30.13;42.18;100215.34;1452684;89;21457;-80
2023/07/05 11:30:01;;;;;;;10.63;6.12;;;;;;;30.26;43.89;100211.73;1459259;89;21575;-80
2023/07/05 11:33:08;;;;;;;8.98;6.17;;;;;;;30.48;43.43;100202.56;1448986;88;22395;-79
2023/07/05 11:35:48;;;;;;;13.88;5.85;;;;;;;30.60;43.01;100206.84;1448045;90;22337;-81
2023/07/05 11:38:40;;;;;;;9.63;5.42;;;;;;;30.67;42.61;100197.23;1451323;90;21472;-80
2023/07/05 11:41:29;;;;;;;11.63;5.75;;;;;;;30.50;41.42;100201.73;1442822;90;21479;-79
2023/07/05 11:44:00;;;;;;;9.93;6.97;;;;;;;30.56;41.40;100193.77;1451447;88;22396;-80
2023/07/05 11:46:48;;;;;;;8.85;6.22;;;;;;;30.67;42.23;100193.13;1451709;89;21406;-80